sensor_id;sensor_type;location;lat;lon;timestamp;pressure;altitude;pressure_sealevel;temperature;humidity
15489;BME280;7846;48.830;9.116;2023-04-30T00:00:28;98156.66;;;14.83;69.52
15489;BME280;7846;48.830;9.116;2023-04-30T00:03:12;98160.25;;;14.67;69.67
15489;BME280;7846;48.830;9.116;2023-04-30T00:05:56;98156.78;;;14.66;69.78
15489;BME280;7846;48.830;9.116;2023-04-30T00:08:40;98165.75;;;14.57;69.45
15489;BME280;7846;48.830;9.116;2023-04-30T00:11:24;98160.59;;;14.87;68.90
15489;BME280;7846;48.830;9.116;2023-04-30T00:14:12;98159.22;;;14.37;69.86
15489;BME280;7846;48.830;9.116;2023-04-30T00:16:59;98165.47;;;14.52;69.76
15489;BME280;7846;48.830;9.116;2023-04-30T00:19:43;98160.81;;;14.54;69.41
15489;BME280;7846;48.830;9.116;2023-04-30T00:22:27;98161.44;;;14.25;70.15
15489;BME280;7846;48.830;9.116;2023-04-30T00:25:11;98163.09;;;14.18;70.38
15489;BME280;7846;48.830;9.116;2023-04-30T00:27:55;98159.69;;;14.09;70.18
15489;BME280;7846;48.830;9.116;2023-04-30T00:30:39;98163.63;;;14.05;70.38
15489;BME280;7846;48.830;9.116;2023-04-30T00:33:23;98166.09;;;14.15;70.32
15489;BME280;7846;48.830;9.116;2023-04-30T00:36:08;98160.47;;;14.18;70.35
15489;BME280;7846;48.830;9.116;2023-04-30T00:38:53;98155.56;;;13.98;70.89
15489;BME280;7846;48.830;9.116;2023-04-30T00:41:39;98165.22;;;14.22;70.95
15489;BME280;7846;48.830;9.116;2023-04-30T00:44:24;98165.91;;;14.16;70.43
15489;BME280;7846;48.830;9.116;2023-04-30T00:47:08;98168.09;;;14.13;70.43
15489;BME280;7846;48.830;9.116;2023-04-30T00:49:52;98164.16;;;14.40;69.55
15489;BME280;7846;48.830;9.116;2023-04-30T00:52:36;98168.88;;;14.21;69.58
15489;BME280;7846;48.830;9.116;2023-04-30T00:55:21;98177.78;;;14.28;69.33
15489;BME280;7846;48.830;9.116;2023-04-30T00:58:07;98172.78;;;14.34;69.80
15489;BME280;7846;48.830;9.116;2023-04-30T01:00:51;98168.00;;;13.82;71.23
15489;BME280;7846;48.830;9.116;2023-04-30T01:03:35;98164.38;;;13.74;71.19
15489;BME280;7846;48.830;9.116;2023-04-30T01:06:19;98170.97;;;13.95;71.09
15489;BME280;7846;48.830;9.116;2023-04-30T01:09:04;98178.09;;;13.94;70.61
15489;BME280;7846;48.830;9.116;2023-04-30T01:17:55;98162.28;;;14.57;69.41
15489;BME280;7846;48.830;9.116;2023-04-30T01:20:51;98165.47;;;14.44;69.65
15489;BME280;7846;48.830;9.116;2023-04-30T01:23:41;98165.94;;;14.08;69.96
15489;BME280;7846;48.830;9.116;2023-04-30T01:29:20;98157.59;;;14.27;69.78
15489;BME280;7846;48.830;9.116;2023-04-30T01:32:06;98149.66;;;14.67;68.26
15489;BME280;7846;48.830;9.116;2023-04-30T01:34:50;98145.16;;;14.67;68.24
15489;BME280;7846;48.830;9.116;2023-04-30T01:40:48;98160.28;;;14.59;68.66
15489;BME280;7846;48.830;9.116;2023-04-30T01:44:06;98151.06;;;14.55;68.79
15489;BME280;7846;48.830;9.116;2023-04-30T01:47:08;98155.13;;;14.65;67.88
15489;BME280;7846;48.830;9.116;2023-04-30T01:53:01;98155.59;;;14.69;66.87
15489;BME280;7846;48.830;9.116;2023-04-30T01:56:11;98150.53;;;14.59;67.82
15489;BME280;7846;48.830;9.116;2023-04-30T01:58:59;98153.47;;;14.64;67.00
15489;BME280;7846;48.830;9.116;2023-04-30T02:01:43;98164.72;;;14.27;67.02
15489;BME280;7846;48.830;9.116;2023-04-30T02:04:28;98162.66;;;14.06;68.61
15489;BME280;7846;48.830;9.116;2023-04-30T02:07:20;98151.53;;;14.58;67.94
15489;BME280;7846;48.830;9.116;2023-04-30T02:10:10;98149.28;;;13.99;68.38
15489;BME280;7846;48.830;9.116;2023-04-30T02:12:56;98149.63;;;13.96;69.08
15489;BME280;7846;48.830;9.116;2023-04-30T02:15:40;98151.38;;;14.51;67.27
15489;BME280;7846;48.830;9.116;2023-04-30T02:18:24;98145.22;;;14.59;67.03
15489;BME280;7846;48.830;9.116;2023-04-30T02:21:08;98142.16;;;14.39;67.15
15489;BME280;7846;48.830;9.116;2023-04-30T02:23:52;98137.94;;;14.22;68.14
15489;BME280;7846;48.830;9.116;2023-04-30T02:26:37;98143.94;;;14.47;67.34
15489;BME280;7846;48.830;9.116;2023-04-30T02:29:24;98133.66;;;14.52;66.58
15489;BME280;7846;48.830;9.116;2023-04-30T02:32:10;98137.31;;;14.51;67.11
15489;BME280;7846;48.830;9.116;2023-04-30T02:34:54;98137.59;;;14.25;67.23
15489;BME280;7846;48.830;9.116;2023-04-30T02:37:37;98136.28;;;14.21;66.87
15489;BME280;7846;48.830;9.116;2023-04-30T02:40:22;98137.94;;;14.22;66.15
15489;BME280;7846;48.830;9.116;2023-04-30T02:43:05;98130.91;;;14.06;68.00
15489;BME280;7846;48.830;9.116;2023-04-30T02:45:50;98144.09;;;14.54;66.39
15489;BME280;7846;48.830;9.116;2023-04-30T02:48:34;98145.22;;;14.59;65.77
15489;BME280;7846;48.830;9.116;2023-04-30T02:51:18;98139.81;;;14.75;64.93
15489;BME280;7846;48.830;9.116;2023-04-30T02:54:03;98142.03;;;14.87;64.48
15489;BME280;7846;48.830;9.116;2023-04-30T02:56:47;98148.34;;;14.86;64.31
15489;BME280;7846;48.830;9.116;2023-04-30T02:59:31;98144.34;;;14.90;64.35
15489;BME280;7846;48.830;9.116;2023-04-30T03:02:16;98144.00;;;14.93;64.50
15489;BME280;7846;48.830;9.116;2023-04-30T03:05:04;98149.13;;;14.71;64.88
15489;BME280;7846;48.830;9.116;2023-04-30T03:07:48;98143.72;;;14.88;64.64
15489;BME280;7846;48.830;9.116;2023-04-30T03:10:32;98146.38;;;14.65;65.14
15489;BME280;7846;48.830;9.116;2023-04-30T03:13:17;98139.78;;;14.84;64.77
15489;BME280;7846;48.830;9.116;2023-04-30T03:16:02;98137.69;;;14.94;64.70
15489;BME280;7846;48.830;9.116;2023-04-30T03:18:49;98137.28;;;14.59;65.35
15489;BME280;7846;48.830;9.116;2023-04-30T03:21:34;98145.97;;;14.68;65.15
15489;BME280;7846;48.830;9.116;2023-04-30T03:24:18;98141.75;;;14.19;66.50
15489;BME280;7846;48.830;9.116;2023-04-30T03:27:03;98139.06;;;13.88;67.13
15489;BME280;7846;48.830;9.116;2023-04-30T03:29:47;98136.72;;;14.33;66.22
15489;BME280;7846;48.830;9.116;2023-04-30T03:32:31;98140.09;;;14.58;65.42
15489;BME280;7846;48.830;9.116;2023-04-30T03:35:15;98150.38;;;14.52;65.25
15489;BME280;7846;48.830;9.116;2023-04-30T03:38:00;98142.78;;;14.41;65.67
15489;BME280;7846;48.830;9.116;2023-04-30T03:40:44;98143.13;;;14.46;65.61
15489;BME280;7846;48.830;9.116;2023-04-30T03:43:28;98145.56;;;14.56;65.42
15489;BME280;7846;48.830;9.116;2023-04-30T03:46:12;98150.75;;;14.41;65.46
15489;BME280;7846;48.830;9.116;2023-04-30T03:48:56;98147.38;;;14.56;65.23
15489;BME280;7846;48.830;9.116;2023-04-30T03:51:40;98159.88;;;14.39;65.86
15489;BME280;7846;48.830;9.116;2023-04-30T03:54:24;98154.47;;;13.76;67.58
15489;BME280;7846;48.830;9.116;2023-04-30T03:57:08;98153.25;;;14.43;65.88
15489;BME280;7846;48.830;9.116;2023-04-30T03:59:53;98152.06;;;14.54;65.65
15489;BME280;7846;48.830;9.116;2023-04-30T04:02:37;98149.59;;;14.44;65.73
15489;BME280;7846;48.830;9.116;2023-04-30T04:05:21;98138.34;;;14.50;65.57
15489;BME280;7846;48.830;9.116;2023-04-30T04:08:05;98145.78;;;14.46;65.70
15489;BME280;7846;48.830;9.116;2023-04-30T04:10:49;98142.41;;;14.21;66.40
15489;BME280;7846;48.830;9.116;2023-04-30T04:13:33;98158.00;;;14.08;67.10
15489;BME280;7846;48.830;9.116;2023-04-30T04:16:18;98157.56;;;14.36;66.10
15489;BME280;7846;48.830;9.116;2023-04-30T04:19:02;98157.13;;;14.24;66.45
15489;BME280;7846;48.830;9.116;2023-04-30T04:21:47;98160.19;;;14.44;66.11
15489;BME280;7846;48.830;9.116;2023-04-30T04:24:34;98160.97;;;14.52;66.05
15489;BME280;7846;48.830;9.116;2023-04-30T04:27:19;98148.75;;;14.51;66.02
15489;BME280;7846;48.830;9.116;2023-04-30T04:30:03;98158.75;;;14.64;65.68
15489;BME280;7846;48.830;9.116;2023-04-30T04:32:48;98159.75;;;14.63;66.03
15489;BME280;7846;48.830;9.116;2023-04-30T04:35:34;98159.06;;;14.69;65.58
15489;BME280;7846;48.830;9.116;2023-04-30T04:38:18;98163.47;;;14.54;65.84
15489;BME280;7846;48.830;9.116;2023-04-30T04:41:04;98167.19;;;14.68;65.87
15489;BME280;7846;48.830;9.116;2023-04-30T04:43:48;98169.44;;;14.79;65.50
15489;BME280;7846;48.830;9.116;2023-04-30T04:46:33;98167.78;;;15.01;65.29
15489;BME280;7846;48.830;9.116;2023-04-30T04:49:18;98166.03;;;14.93;64.69
15489;BME280;7846;48.830;9.116;2023-04-30T04:52:02;98166.16;;;15.00;65.15
15489;BME280;7846;48.830;9.116;2023-04-30T04:54:46;98167.75;;;15.09;65.20
15489;BME280;7846;48.830;9.116;2023-04-30T04:57:33;98163.78;;;15.05;64.74
15489;BME280;7846;48.830;9.116;2023-04-30T05:00:17;98167.78;;;15.01;64.44
15489;BME280;7846;48.830;9.116;2023-04-30T05:03:02;98173.00;;;15.17;64.49
15489;BME280;7846;48.830;9.116;2023-04-30T05:05:47;98161.25;;;14.66;65.58
15489;BME280;7846;48.830;9.116;2023-04-30T05:08:31;98165.97;;;15.01;64.71
15489;BME280;7846;48.830;9.116;2023-04-30T05:11:15;98170.16;;;14.73;65.79
15489;BME280;7846;48.830;9.116;2023-04-30T05:13:59;98163.66;;;14.75;65.08
15489;BME280;7846;48.830;9.116;2023-04-30T05:16:44;98172.88;;;15.11;64.63
15489;BME280;7846;48.830;9.116;2023-04-30T05:19:29;98168.47;;;15.41;63.84
15489;BME280;7846;48.830;9.116;2023-04-30T05:22:13;98167.81;;;15.62;62.96
15489;BME280;7846;48.830;9.116;2023-04-30T05:24:57;98175.75;;;15.62;63.13
15489;BME280;7846;48.830;9.116;2023-04-30T05:27:41;98173.34;;;15.52;62.95
15489;BME280;7846;48.830;9.116;2023-04-30T05:30:26;98176.75;;;15.84;62.58
15489;BME280;7846;48.830;9.116;2023-04-30T05:33:11;98174.38;;;15.51;62.81
15489;BME280;7846;48.830;9.116;2023-04-30T05:35:55;98187.81;;;15.72;62.42
15489;BME280;7846;48.830;9.116;2023-04-30T05:38:39;98179.31;;;15.54;62.24
15489;BME280;7846;48.830;9.116;2023-04-30T05:41:23;98179.19;;;15.70;62.30
15489;BME280;7846;48.830;9.116;2023-04-30T05:44:07;98173.44;;;15.96;61.97
15489;BME280;7846;48.830;9.116;2023-04-30T05:46:52;98172.53;;;15.89;61.61
15489;BME280;7846;48.830;9.116;2023-04-30T05:49:36;98170.22;;;16.01;61.73
15489;BME280;7846;48.830;9.116;2023-04-30T05:52:19;98171.16;;;15.93;61.33
15489;BME280;7846;48.830;9.116;2023-04-30T05:55:05;98170.16;;;16.24;60.94
15489;BME280;7846;48.830;9.116;2023-04-30T05:57:49;98166.75;;;16.15;60.80
15489;BME280;7846;48.830;9.116;2023-04-30T06:00:37;98165.81;;;16.23;60.35
15489;BME280;7846;48.830;9.116;2023-04-30T06:03:22;98176.28;;;16.10;61.16
15489;BME280;7846;48.830;9.116;2023-04-30T06:06:06;98174.00;;;16.07;60.82
15489;BME280;7846;48.830;9.116;2023-04-30T06:08:50;98162.81;;;16.11;60.46
15489;BME280;7846;48.830;9.116;2023-04-30T06:11:34;98169.38;;;16.45;59.85
15489;BME280;7846;48.830;9.116;2023-04-30T06:14:20;98180.22;;;16.29;60.16
15489;BME280;7846;48.830;9.116;2023-04-30T06:17:05;98177.53;;;16.43;59.87
15489;BME280;7846;48.830;9.116;2023-04-30T06:19:50;98182.38;;;16.55;59.34
15489;BME280;7846;48.830;9.116;2023-04-30T06:22:34;98182.94;;;16.50;59.74
15489;BME280;7846;48.830;9.116;2023-04-30T06:25:18;98180.50;;;16.85;59.01
15489;BME280;7846;48.830;9.116;2023-04-30T06:28:03;98178.53;;;16.93;58.97
15489;BME280;7846;48.830;9.116;2023-04-30T06:30:48;98178.41;;;16.80;59.44
15489;BME280;7846;48.830;9.116;2023-04-30T06:33:33;98183.91;;;16.64;59.03
15489;BME280;7846;48.830;9.116;2023-04-30T06:36:17;98185.63;;;17.29;57.85
15489;BME280;7846;48.830;9.116;2023-04-30T06:39:02;98184.16;;;17.48;57.46
15489;BME280;7846;48.830;9.116;2023-04-30T06:41:46;98188.72;;;16.90;58.81
15489;BME280;7846;48.830;9.116;2023-04-30T06:44:30;98183.56;;;17.03;57.78
15489;BME280;7846;48.830;9.116;2023-04-30T06:47:14;98189.50;;;16.69;58.72
15489;BME280;7846;48.830;9.116;2023-04-30T06:49:59;98193.28;;;17.39;58.16
15489;BME280;7846;48.830;9.116;2023-04-30T06:52:43;98183.59;;;17.31;57.91
15489;BME280;7846;48.830;9.116;2023-04-30T06:55:27;98188.97;;;17.16;57.91
15489;BME280;7846;48.830;9.116;2023-04-30T06:58:11;98190.97;;;17.57;57.33
15489;BME280;7846;48.830;9.116;2023-04-30T07:00:55;98192.28;;;17.68;57.02
15489;BME280;7846;48.830;9.116;2023-04-30T07:03:40;98188.03;;;17.95;56.24
15489;BME280;7846;48.830;9.116;2023-04-30T07:06:25;98188.69;;;17.76;56.51
15489;BME280;7846;48.830;9.116;2023-04-30T07:09:09;98176.66;;;17.80;56.22
15489;BME280;7846;48.830;9.116;2023-04-30T07:11:53;98175.50;;;17.39;56.55
15489;BME280;7846;48.830;9.116;2023-04-30T07:14:37;98166.50;;;17.69;56.13
15489;BME280;7846;48.830;9.116;2023-04-30T07:17:22;98175.19;;;17.77;56.39
15489;BME280;7846;48.830;9.116;2023-04-30T07:20:07;98169.25;;;18.51;54.73
15489;BME280;7846;48.830;9.116;2023-04-30T07:22:51;98175.31;;;18.73;53.22
15489;BME280;7846;48.830;9.116;2023-04-30T07:25:35;98168.84;;;18.61;52.90
15489;BME280;7846;48.830;9.116;2023-04-30T07:28:19;98167.94;;;18.34;53.13
15489;BME280;7846;48.830;9.116;2023-04-30T07:31:04;98175.19;;;18.12;53.63
15489;BME280;7846;48.830;9.116;2023-04-30T07:33:48;98175.31;;;18.80;53.44
15489;BME280;7846;48.830;9.116;2023-04-30T07:36:33;98168.63;;;19.37;51.51
15489;BME280;7846;48.830;9.116;2023-04-30T07:39:17;98167.19;;;18.53;52.18
15489;BME280;7846;48.830;9.116;2023-04-30T07:42:01;98163.03;;;18.92;52.01
15489;BME280;7846;48.830;9.116;2023-04-30T07:44:45;98159.56;;;19.12;51.01
15489;BME280;7846;48.830;9.116;2023-04-30T07:47:31;98160.34;;;18.79;51.58
15489;BME280;7846;48.830;9.116;2023-04-30T07:50:17;98152.41;;;19.19;51.40
15489;BME280;7846;48.830;9.116;2023-04-30T07:53:01;98164.13;;;19.18;51.00
15489;BME280;7846;48.830;9.116;2023-04-30T07:55:45;98155.41;;;18.76;50.54
15489;BME280;7846;48.830;9.116;2023-04-30T07:58:30;98151.75;;;18.90;50.95
15489;BME280;7846;48.830;9.116;2023-04-30T08:01:15;98154.88;;;19.40;50.64
15489;BME280;7846;48.830;9.116;2023-04-30T08:03:59;98154.88;;;19.40;49.69
15489;BME280;7846;48.830;9.116;2023-04-30T08:06:45;98149.13;;;19.56;48.83
15489;BME280;7846;48.830;9.116;2023-04-30T08:09:30;98153.44;;;19.38;48.12
15489;BME280;7846;48.830;9.116;2023-04-30T08:12:15;98150.56;;;19.32;49.53
15489;BME280;7846;48.830;9.116;2023-04-30T08:15:03;98157.75;;;19.32;49.45
15489;BME280;7846;48.830;9.116;2023-04-30T08:17:48;98142.94;;;19.82;48.60
15489;BME280;7846;48.830;9.116;2023-04-30T08:20:33;98146.78;;;20.13;47.13
15489;BME280;7846;48.830;9.116;2023-04-30T08:23:19;98150.88;;;20.16;48.03
15489;BME280;7846;48.830;9.116;2023-04-30T08:26:03;98151.75;;;20.61;45.46
15489;BME280;7846;48.830;9.116;2023-04-30T08:28:47;98152.44;;;21.20;44.67
15489;BME280;7846;48.830;9.116;2023-04-30T08:31:31;98146.38;;;21.63;43.88
15489;BME280;7846;48.830;9.116;2023-04-30T08:34:22;98145.25;;;20.37;45.47
15489;BME280;7846;48.830;9.116;2023-04-30T08:37:06;98151.34;;;20.64;46.01
15489;BME280;7846;48.830;9.116;2023-04-30T08:39:50;98160.84;;;19.55;47.16
15489;BME280;7846;48.830;9.116;2023-04-30T08:42:35;98152.19;;;19.87;46.89
15489;BME280;7846;48.830;9.116;2023-04-30T08:45:20;98149.31;;;19.88;47.05
15489;BME280;7846;48.830;9.116;2023-04-30T08:48:09;98158.50;;;20.05;46.08
15489;BME280;7846;48.830;9.116;2023-04-30T08:50:55;98150.47;;;20.19;45.98
15489;BME280;7846;48.830;9.116;2023-04-30T08:53:39;98146.16;;;21.08;44.02
15489;BME280;7846;48.830;9.116;2023-04-30T08:56:24;98151.75;;;20.61;44.54
15489;BME280;7846;48.830;9.116;2023-04-30T08:59:08;98161.16;;;20.25;45.04
15489;BME280;7846;48.830;9.116;2023-04-30T09:01:52;98153.38;;;20.17;44.36
15489;BME280;7846;48.830;9.116;2023-04-30T09:04:38;98156.16;;;20.87;44.24
15489;BME280;7846;48.830;9.116;2023-04-30T09:07:26;98152.34;;;21.40;42.87
15489;BME280;7846;48.830;9.116;2023-04-30T09:10:16;98151.50;;;21.08;42.58
15489;BME280;7846;48.830;9.116;2023-04-30T09:13:05;98151.88;;;21.43;41.58
15489;BME280;7846;48.830;9.116;2023-04-30T09:15:50;98151.44;;;21.46;40.76
15489;BME280;7846;48.830;9.116;2023-04-30T09:18:38;98151.53;;;21.33;40.97
15489;BME280;7846;48.830;9.116;2023-04-30T09:21:31;98143.66;;;21.06;42.92
15489;BME280;7846;48.830;9.116;2023-04-30T09:24:16;98152.91;;;20.20;43.47
15489;BME280;7846;48.830;9.116;2023-04-30T09:27:14;98149.81;;;20.82;42.79
15489;BME280;7846;48.830;9.116;2023-04-30T09:29:59;98147.97;;;20.30;42.36
15489;BME280;7846;48.830;9.116;2023-04-30T09:32:54;98144.34;;;20.63;42.32
15489;BME280;7846;48.830;9.116;2023-04-30T09:35:39;98147.31;;;21.68;41.48
15489;BME280;7846;48.830;9.116;2023-04-30T09:38:30;98135.47;;;21.33;41.24
15489;BME280;7846;48.830;9.116;2023-04-30T09:41:24;98143.56;;;22.13;39.88
15489;BME280;7846;48.830;9.116;2023-04-30T09:44:30;98146.94;;;21.65;41.12
15489;BME280;7846;48.830;9.116;2023-04-30T09:47:19;98134.19;;;21.85;41.16
15489;BME280;7846;48.830;9.116;2023-04-30T09:50:03;98147.47;;;22.35;38.38
15489;BME280;7846;48.830;9.116;2023-04-30T09:52:52;98137.09;;;22.39;38.93
15489;BME280;7846;48.830;9.116;2023-04-30T09:55:42;98150.72;;;22.01;39.13
15489;BME280;7846;48.830;9.116;2023-04-30T09:58:27;98145.34;;;22.26;39.42
15489;BME280;7846;48.830;9.116;2023-04-30T10:01:13;98145.50;;;22.06;39.71
15489;BME280;7846;48.830;9.116;2023-04-30T10:03:57;98138.44;;;22.11;39.61
15489;BME280;7846;48.830;9.116;2023-04-30T10:06:41;98147.50;;;21.17;39.96
15489;BME280;7846;48.830;9.116;2023-04-30T10:09:29;98141.25;;;21.80;40.78
15489;BME280;7846;48.830;9.116;2023-04-30T10:12:19;98147.03;;;21.26;40.87
15489;BME280;7846;48.830;9.116;2023-04-30T10:15:10;98143.81;;;22.11;39.57
15489;BME280;7846;48.830;9.116;2023-04-30T10:18:22;98139.88;;;19.79;41.47
15489;BME280;7846;48.830;9.116;2023-04-30T10:21:10;98149.81;;;20.82;41.98
15489;BME280;7846;48.830;9.116;2023-04-30T10:23:56;98146.38;;;21.31;41.22
15489;BME280;7846;48.830;9.116;2023-04-30T10:26:44;98138.56;;;21.98;40.45
15489;BME280;7846;48.830;9.116;2023-04-30T10:29:28;98138.34;;;22.73;38.77
15489;BME280;7846;48.830;9.116;2023-04-30T10:32:13;98136.75;;;22.35;38.91
15489;BME280;7846;48.830;9.116;2023-04-30T10:35:19;98132.13;;;22.73;38.47
15489;BME280;7846;48.830;9.116;2023-04-30T10:38:23;98134.72;;;22.12;38.96
15489;BME280;7846;48.830;9.116;2023-04-30T10:41:09;98124.00;;;21.25;38.99
15489;BME280;7846;48.830;9.116;2023-04-30T10:43:57;98123.47;;;21.85;38.51
15489;BME280;7846;48.830;9.116;2023-04-30T10:46:45;98121.75;;;21.91;38.18
15489;BME280;7846;48.830;9.116;2023-04-30T10:49:29;98115.78;;;20.57;39.97
15489;BME280;7846;48.830;9.116;2023-04-30T10:52:25;98109.59;;;20.57;40.88
15489;BME280;7846;48.830;9.116;2023-04-30T10:55:10;98123.00;;;21.70;39.61
15489;BME280;7846;48.830;9.116;2023-04-30T10:57:53;98105.31;;;22.24;37.91
15489;BME280;7846;48.830;9.116;2023-04-30T11:00:50;98114.34;;;22.60;37.60
15489;BME280;7846;48.830;9.116;2023-04-30T11:04:04;98116.19;;;23.19;37.12
15489;BME280;7846;48.830;9.116;2023-04-30T11:09:42;98116.88;;;23.15;37.51
15489;BME280;7846;48.830;9.116;2023-04-30T11:12:29;98109.47;;;22.68;37.74
15489;BME280;7846;48.830;9.116;2023-04-30T11:15:16;98102.56;;;23.45;37.07
15489;BME280;7846;48.830;9.116;2023-04-30T11:18:00;98102.69;;;21.81;38.19
15489;BME280;7846;48.830;9.116;2023-04-30T11:20:50;98098.41;;;22.46;38.73
15489;BME280;7846;48.830;9.116;2023-04-30T11:23:34;98101.38;;;23.29;38.19
15489;BME280;7846;48.830;9.116;2023-04-30T11:26:18;98099.59;;;22.99;37.42
15489;BME280;7846;48.830;9.116;2023-04-30T11:29:04;98097.19;;;23.33;35.91
15489;BME280;7846;48.830;9.116;2023-04-30T11:31:48;98105.03;;;23.81;35.97
15489;BME280;7846;48.830;9.116;2023-04-30T11:34:33;98091.81;;;22.12;36.50
15489;BME280;7846;48.830;9.116;2023-04-30T11:37:19;98100.28;;;23.06;37.91
15489;BME280;7846;48.830;9.116;2023-04-30T11:40:08;98098.91;;;23.15;36.86
15489;BME280;7846;48.830;9.116;2023-04-30T11:42:54;98091.91;;;23.26;36.66
15489;BME280;7846;48.830;9.116;2023-04-30T11:45:38;98090.44;;;23.77;37.11
15489;BME280;7846;48.830;9.116;2023-04-30T11:48:24;98088.53;;;23.54;36.30
15489;BME280;7846;48.830;9.116;2023-04-30T11:51:15;98098.34;;;23.25;36.53
15489;BME280;7846;48.830;9.116;2023-04-30T11:54:00;98094.03;;;22.52;36.06
15489;BME280;7846;48.830;9.116;2023-04-30T11:56:45;98083.50;;;22.81;37.20
15489;BME280;7846;48.830;9.116;2023-04-30T11:59:39;98085.72;;;23.96;36.20
15489;BME280;7846;48.830;9.116;2023-04-30T12:02:26;98079.28;;;23.62;36.78
15489;BME280;7846;48.830;9.116;2023-04-30T12:05:15;98076.16;;;24.29;36.00
15489;BME280;7846;48.830;9.116;2023-04-30T12:08:04;98078.94;;;23.94;35.81
15489;BME280;7846;48.830;9.116;2023-04-30T12:10:54;98073.09;;;23.61;35.90
15489;BME280;7846;48.830;9.116;2023-04-30T12:13:37;98073.25;;;23.55;36.66
15489;BME280;7846;48.830;9.116;2023-04-30T12:16:23;98069.69;;;24.01;35.37
15489;BME280;7846;48.830;9.116;2023-04-30T12:19:08;98063.88;;;23.57;35.30
15489;BME280;7846;48.830;9.116;2023-04-30T12:21:53;98071.38;;;23.43;35.53
15489;BME280;7846;48.830;9.116;2023-04-30T12:24:37;98074.84;;;23.09;37.00
15489;BME280;7846;48.830;9.116;2023-04-30T12:27:21;98072.88;;;23.28;37.04
15489;BME280;7846;48.830;9.116;2023-04-30T12:30:06;98066.09;;;23.25;38.14
15489;BME280;7846;48.830;9.116;2023-04-30T12:32:57;98070.19;;;23.51;37.99
15489;BME280;7846;48.830;9.116;2023-04-30T12:35:44;98077.41;;;23.27;38.00
15489;BME280;7846;48.830;9.116;2023-04-30T12:38:29;98074.84;;;23.09;37.46
15489;BME280;7846;48.830;9.116;2023-04-30T12:41:15;98073.19;;;23.08;37.70
15489;BME280;7846;48.830;9.116;2023-04-30T12:44:22;98074.97;;;22.84;38.14
15489;BME280;7846;48.830;9.116;2023-04-30T12:47:07;98060.88;;;22.88;37.24
15489;BME280;7846;48.830;9.116;2023-04-30T12:49:54;98060.09;;;22.09;37.07
15489;BME280;7846;48.830;9.116;2023-04-30T12:52:38;98063.53;;;23.18;36.73
15489;BME280;7846;48.830;9.116;2023-04-30T12:55:27;98054.91;;;22.75;36.78
15489;BME280;7846;48.830;9.116;2023-04-30T12:58:12;98049.38;;;23.35;37.00
15489;BME280;7846;48.830;9.116;2023-04-30T13:00:57;98055.81;;;23.22;37.43
15489;BME280;7846;48.830;9.116;2023-04-30T13:03:42;98046.56;;;23.77;35.63
15489;BME280;7846;48.830;9.116;2023-04-30T13:06:25;98044.00;;;23.35;36.83
15489;BME280;7846;48.830;9.116;2023-04-30T13:09:12;98043.88;;;23.65;36.45
15489;BME280;7846;48.830;9.116;2023-04-30T13:11:57;98036.53;;;23.49;36.36
15489;BME280;7846;48.830;9.116;2023-04-30T13:14:41;98044.50;;;22.66;37.73
15489;BME280;7846;48.830;9.116;2023-04-30T13:17:45;98036.91;;;22.75;36.48
15489;BME280;7846;48.830;9.116;2023-04-30T13:20:32;98028.03;;;23.40;36.11
15489;BME280;7846;48.830;9.116;2023-04-30T13:23:16;98025.31;;;23.28;35.40
15489;BME280;7846;48.830;9.116;2023-04-30T13:26:00;98021.47;;;23.36;36.36
15489;BME280;7846;48.830;9.116;2023-04-30T13:28:46;98014.69;;;24.09;36.06
15489;BME280;7846;48.830;9.116;2023-04-30T13:31:30;98007.56;;;24.43;35.67
15489;BME280;7846;48.830;9.116;2023-04-30T13:34:14;98016.34;;;24.67;34.42
15489;BME280;7846;48.830;9.116;2023-04-30T13:36:59;98014.97;;;24.24;34.90
15489;BME280;7846;48.830;9.116;2023-04-30T13:39:43;98009.31;;;25.33;34.51
15489;BME280;7846;48.830;9.116;2023-04-30T13:42:28;98017.63;;;23.43;36.54
15489;BME280;7846;48.830;9.116;2023-04-30T13:45:12;98017.78;;;24.01;35.20
15489;BME280;7846;48.830;9.116;2023-04-30T13:47:57;98012.28;;;24.24;34.63
15489;BME280;7846;48.830;9.116;2023-04-30T13:50:41;98016.41;;;25.06;34.98
15489;BME280;7846;48.830;9.116;2023-04-30T13:53:25;98011.25;;;25.55;33.63
15489;BME280;7846;48.830;9.116;2023-04-30T13:56:10;98015.19;;;25.69;33.98
15489;BME280;7846;48.830;9.116;2023-04-30T13:58:55;98004.09;;;25.27;33.45
15489;BME280;7846;48.830;9.116;2023-04-30T14:01:39;98014.44;;;25.52;33.33
15489;BME280;7846;48.830;9.116;2023-04-30T14:04:23;98013.78;;;25.45;33.79
15489;BME280;7846;48.830;9.116;2023-04-30T14:07:08;98000.25;;;24.27;33.80
15489;BME280;7846;48.830;9.116;2023-04-30T14:09:52;98004.22;;;23.96;35.09
15489;BME280;7846;48.830;9.116;2023-04-30T14:12:37;98000.72;;;25.03;33.81
15489;BME280;7846;48.830;9.116;2023-04-30T14:15:22;97993.66;;;24.34;33.30
15489;BME280;7846;48.830;9.116;2023-04-30T14:18:06;97991.72;;;24.92;33.51
15489;BME280;7846;48.830;9.116;2023-04-30T14:20:51;97987.13;;;24.59;34.28
15489;BME280;7846;48.830;9.116;2023-04-30T14:23:36;97990.16;;;24.34;34.89
15489;BME280;7846;48.830;9.116;2023-04-30T14:26:21;97989.16;;;24.85;33.90
15489;BME280;7846;48.830;9.116;2023-04-30T14:29:05;97992.88;;;23.94;34.51
15489;BME280;7846;48.830;9.116;2023-04-30T14:31:50;97984.25;;;24.20;34.94
15489;BME280;7846;48.830;9.116;2023-04-30T14:34:34;97972.69;;;25.16;33.62
15489;BME280;7846;48.830;9.116;2023-04-30T14:37:18;97977.25;;;24.65;32.90
15489;BME280;7846;48.830;9.116;2023-04-30T14:40:03;97973.47;;;25.77;32.13
15489;BME280;7846;48.830;9.116;2023-04-30T14:42:49;97981.19;;;26.12;32.71
15489;BME280;7846;48.830;9.116;2023-04-30T14:45:33;97968.09;;;23.91;34.87
15489;BME280;7846;48.830;9.116;2023-04-30T14:48:17;97966.41;;;22.56;36.92
15489;BME280;7846;48.830;9.116;2023-04-30T14:51:01;97956.88;;;23.42;35.84
15489;BME280;7846;48.830;9.116;2023-04-30T14:53:45;97952.69;;;23.87;35.14
15489;BME280;7846;48.830;9.116;2023-04-30T14:56:29;97951.16;;;23.27;35.58
15489;BME280;7846;48.830;9.116;2023-04-30T14:59:14;97947.31;;;24.44;34.38
15489;BME280;7846;48.830;9.116;2023-04-30T15:01:58;97949.94;;;23.99;34.58
15489;BME280;7846;48.830;9.116;2023-04-30T15:04:42;97959.88;;;24.72;33.91
15489;BME280;7846;48.830;9.116;2023-04-30T15:07:30;97956.19;;;25.12;33.41